sensor_id;sensor_type;location;lat;lon;timestamp;pressure;altitude;pressure_sealevel;temperature;humidity
50057;BME280;36875;49.468;11.200;2023-03-14T00:00:37;96167.75;;;19.15;42.76
50057;BME280;36875;49.468;11.200;2023-03-14T00:03:03;96168.09;;;19.14;42.73
50057;BME280;36875;49.468;11.200;2023-03-14T00:05:28;96168.09;;;19.14;43.10
50057;BME280;36875;49.468;11.200;2023-03-14T00:07:54;96171.16;;;19.12;42.96
50057;BME280;36875;49.468;11.200;2023-03-14T00:10:20;96176.63;;;19.12;42.53
50057;BME280;36875;49.468;11.200;2023-03-14T00:12:46;96179.69;;;19.11;42.97
50057;BME280;36875;49.468;11.200;2023-03-14T00:15:13;96174.22;;;19.11;43.03
50057;BME280;36875;49.468;11.200;2023-03-14T00:17:39;96172.63;;;19.10;42.88
50057;BME280;36875;49.468;11.200;2023-03-14T00:20:06;96181.97;;;19.09;42.94
50057;BME280;36875;49.468;11.200;2023-03-14T00:22:36;96178.47;;;19.08;42.65
50057;BME280;36875;49.468;11.200;2023-03-14T00:25:02;96194.00;;;19.07;42.59
50057;BME280;36875;49.468;11.200;2023-03-14T00:27:28;96197.88;;;19.06;42.97
50057;BME280;36875;49.468;11.200;2023-03-14T00:29:54;96193.56;;;19.05;42.99
50057;BME280;36875;49.468;11.200;2023-03-14T00:32:20;96200.16;;;19.04;42.41
50057;BME280;36875;49.468;11.200;2023-03-14T00:34:46;96212.97;;;19.04;42.58
50057;BME280;36875;49.468;11.200;2023-03-14T00:37:13;96219.25;;;19.04;42.57
50057;BME280;36875;49.468;11.200;2023-03-14T00:39:39;96221.16;;;19.04;42.64
50057;BME280;36875;49.468;11.200;2023-03-14T00:42:04;96217.22;;;19.01;42.87
50057;BME280;36875;49.468;11.200;2023-03-14T00:44:30;96235.16;;;19.02;42.81
50057;BME280;36875;49.468;11.200;2023-03-14T00:46:57;96229.72;;;19.02;42.83
50057;BME280;36875;49.468;11.200;2023-03-14T00:49:24;96220.63;;;18.98;42.50
50057;BME280;36875;49.468;11.200;2023-03-14T00:51:50;96233.13;;;18.99;42.44
50057;BME280;36875;49.468;11.200;2023-03-14T00:54:16;96232.34;;;18.99;42.57
50057;BME280;36875;49.468;11.200;2023-03-14T00:56:42;96245.16;;;18.98;42.68
50057;BME280;36875;49.468;11.200;2023-03-14T00:59:07;96261.50;;;18.98;42.57
50057;BME280;36875;49.468;11.200;2023-03-14T01:01:33;96249.03;;;18.97;42.94
50057;BME280;36875;49.468;11.200;2023-03-14T01:03:58;96253.69;;;18.97;42.89
50057;BME280;36875;49.468;11.200;2023-03-14T01:06:26;96252.88;;;18.96;42.75
50057;BME280;36875;49.468;11.200;2023-03-14T01:08:52;96243.13;;;18.95;42.60
50057;BME280;36875;49.468;11.200;2023-03-14T01:11:20;96230.97;;;18.93;42.65
50057;BME280;36875;49.468;11.200;2023-03-14T01:13:46;96223.59;;;18.93;42.79
50057;BME280;36875;49.468;11.200;2023-03-14T01:16:12;96209.16;;;18.93;42.75
50057;BME280;36875;49.468;11.200;2023-03-14T01:18:39;96193.97;;;18.92;42.81
50057;BME280;36875;49.468;11.200;2023-03-14T01:21:11;96187.69;;;18.91;42.35
50057;BME280;36875;49.468;11.200;2023-03-14T01:23:38;96172.50;;;18.90;42.63
50057;BME280;36875;49.468;11.200;2023-03-14T01:26:04;96161.59;;;18.90;42.30
50057;BME280;36875;49.468;11.200;2023-03-14T01:28:29;96173.63;;;18.89;42.48
50057;BME280;36875;49.468;11.200;2023-03-14T01:30:55;96184.53;;;18.89;42.62
50057;BME280;36875;49.468;11.200;2023-03-14T01:33:20;96184.53;;;18.89;42.55
50057;BME280;36875;49.468;11.200;2023-03-14T01:35:49;96167.38;;;18.88;42.31
50057;BME280;36875;49.468;11.200;2023-03-14T01:38:14;96157.97;;;18.86;42.74
50057;BME280;36875;49.468;11.200;2023-03-14T01:40:44;96160.72;;;18.86;42.66
50057;BME280;36875;49.468;11.200;2023-03-14T01:43:15;96172.38;;;18.86;42.56
50057;BME280;36875;49.468;11.200;2023-03-14T01:46:19;96174.66;;;18.84;42.34
50057;BME280;36875;49.468;11.200;2023-03-14T01:48:48;96164.13;;;18.83;42.46
50057;BME280;36875;49.468;11.200;2023-03-14T01:51:18;96178.19;;;18.85;42.51
50057;BME280;36875;49.468;11.200;2023-03-14T01:53:46;96184.78;;;18.84;42.68
50057;BME280;36875;49.468;11.200;2023-03-14T01:56:16;96199.53;;;18.83;42.54
50057;BME280;36875;49.468;11.200;2023-03-14T01:58:46;96199.53;;;18.83;42.24
50057;BME280;36875;49.468;11.200;2023-03-14T02:01:14;96208.06;;;18.81;42.31
50057;BME280;36875;49.468;11.200;2023-03-14T02:03:47;96205.34;;;18.81;42.41
50057;BME280;36875;49.468;11.200;2023-03-14T02:06:14;96210.00;;;18.81;42.41
50057;BME280;36875;49.468;11.200;2023-03-14T02:08:43;96211.09;;;18.80;42.80
50057;BME280;36875;49.468;11.200;2023-03-14T02:11:12;96211.09;;;18.80;42.71
50057;BME280;36875;49.468;11.200;2023-03-14T02:13:39;96213.81;;;18.80;42.25
50057;BME280;36875;49.468;11.200;2023-03-14T02:16:06;96196.13;;;18.74;42.69
50057;BME280;36875;49.468;11.200;2023-03-14T02:18:31;96200.91;;;18.77;42.60
50057;BME280;36875;49.468;11.200;2023-03-14T02:21:00;96196.22;;;18.77;42.31
50057;BME280;36875;49.468;11.200;2023-03-14T02:23:37;96181.00;;;18.76;42.42
50057;BME280;36875;49.468;11.200;2023-03-14T02:26:08;96175.56;;;18.76;42.31
50057;BME280;36875;49.468;11.200;2023-03-14T02:28:37;96163.88;;;18.76;42.47
50057;BME280;36875;49.468;11.200;2023-03-14T02:31:03;96165.00;;;18.75;42.33
50057;BME280;36875;49.468;11.200;2023-03-14T02:33:29;96163.88;;;18.76;42.74
50057;BME280;36875;49.468;11.200;2023-03-14T02:35:58;96160.25;;;18.72;42.48
50057;BME280;36875;49.468;11.200;2023-03-14T02:38:27;96174.00;;;18.75;42.67
50057;BME280;36875;49.468;11.200;2023-03-14T02:40:54;96171.59;;;18.74;42.66
50057;BME280;36875;49.468;11.200;2023-03-14T02:43:20;96155.59;;;18.72;42.21
50057;BME280;36875;49.468;11.200;2023-03-14T02:45:48;96155.25;;;18.74;42.25
50057;BME280;36875;49.468;11.200;2023-03-14T02:48:19;96152.88;;;18.72;42.42
50057;BME280;36875;49.468;11.200;2023-03-14T02:50:47;96143.91;;;18.72;42.64
50057;BME280;36875;49.468;11.200;2023-03-14T02:53:16;96144.25;;;18.70;42.59
50057;BME280;36875;49.468;11.200;2023-03-14T02:55:45;96146.97;;;18.70;42.67
50057;BME280;36875;49.468;11.200;2023-03-14T02:58:11;96142.31;;;18.71;42.68
50057;BME280;36875;49.468;11.200;2023-03-14T03:00:37;96129.03;;;18.69;42.13
50057;BME280;36875;49.468;11.200;2023-03-14T03:03:04;96130.97;;;18.68;42.40
50057;BME280;36875;49.468;11.200;2023-03-14T03:05:31;96137.19;;;18.69;42.19
50057;BME280;36875;49.468;11.200;2023-03-14T03:07:56;96132.13;;;18.67;42.60
50057;BME280;36875;49.468;11.200;2023-03-14T03:10:22;96116.13;;;18.66;42.50
50057;BME280;36875;49.468;11.200;2023-03-14T03:12:47;96127.78;;;18.66;42.47
50057;BME280;36875;49.468;11.200;2023-03-14T03:15:13;96133.25;;;18.66;42.17
50057;BME280;36875;49.468;11.200;2023-03-14T03:17:39;96142.53;;;18.65;42.11
50057;BME280;36875;49.468;11.200;2023-03-14T03:20:06;96136.31;;;18.65;42.66
50057;BME280;36875;49.468;11.200;2023-03-14T03:22:34;96127.00;;;18.66;42.42
50057;BME280;36875;49.468;11.200;2023-03-14T03:24:59;96125.41;;;18.65;42.31
50057;BME280;36875;49.468;11.200;2023-03-14T03:27:25;96123.84;;;18.64;42.56
50057;BME280;36875;49.468;11.200;2023-03-14T03:29:50;96123.84;;;18.64;42.20
50057;BME280;36875;49.468;11.200;2023-03-14T03:32:16;96106.25;;;18.61;42.38
50057;BME280;36875;49.468;11.200;2023-03-14T03:34:41;96122.25;;;18.63;42.56
50057;BME280;36875;49.468;11.200;2023-03-14T03:37:08;96101.59;;;18.62;42.56
50057;BME280;36875;49.468;11.200;2023-03-14T03:39:34;96098.88;;;18.62;42.15
50057;BME280;36875;49.468;11.200;2023-03-14T03:41:59;96104.34;;;18.62;42.18
50057;BME280;36875;49.468;11.200;2023-03-14T03:44:25;96107.84;;;18.62;42.51
50057;BME280;36875;49.468;11.200;2023-03-14T03:46:50;96108.97;;;18.61;42.14
50057;BME280;36875;49.468;11.200;2023-03-14T03:49:15;96120.56;;;18.58;41.93
50057;BME280;36875;49.468;11.200;2023-03-14T03:51:41;96111.25;;;18.59;42.33
50057;BME280;36875;49.468;11.200;2023-03-14T03:54:10;96105.00;;;18.59;42.41
50057;BME280;36875;49.468;11.200;2023-03-14T03:56:36;96105.78;;;18.59;42.45
50057;BME280;36875;49.468;11.200;2023-03-14T03:59:01;96098.78;;;18.58;42.34
50057;BME280;36875;49.468;11.200;2023-03-14T04:01:27;96096.84;;;18.59;42.21
50057;BME280;36875;49.468;11.200;2023-03-14T04:03:52;96085.50;;;18.57;42.15
50057;BME280;36875;49.468;11.200;2023-03-14T04:06:18;96090.59;;;18.58;42.46
50057;BME280;36875;49.468;11.200;2023-03-14T04:08:43;96079.94;;;18.53;42.07
50057;BME280;36875;49.468;11.200;2023-03-14T04:11:10;96074.59;;;18.57;42.16
50057;BME280;36875;49.468;11.200;2023-03-14T04:13:36;96073.78;;;18.56;42.04
50057;BME280;36875;49.468;11.200;2023-03-14T04:16:01;96078.44;;;18.56;42.15
50057;BME280;36875;49.468;11.200;2023-03-14T04:18:27;96062.44;;;18.54;42.11
50057;BME280;36875;49.468;11.200;2023-03-14T04:20:55;96054.28;;;18.54;41.95
50057;BME280;36875;49.468;11.200;2023-03-14T04:23:22;96049.16;;;18.53;42.08
50057;BME280;36875;49.468;11.200;2023-03-14T04:25:51;96053.50;;;18.54;41.89
50057;BME280;36875;49.468;11.200;2023-03-14T04:28:18;96052.72;;;18.53;42.00
50057;BME280;36875;49.468;11.200;2023-03-14T04:30:43;96052.72;;;18.53;41.99
50057;BME280;36875;49.468;11.200;2023-03-14T04:33:09;96046.44;;;18.53;42.30
50057;BME280;36875;49.468;11.200;2023-03-14T04:35:35;96051.09;;;18.52;42.20
50057;BME280;36875;49.468;11.200;2023-03-14T04:38:01;96050.66;;;18.50;42.29
50057;BME280;36875;49.468;11.200;2023-03-14T04:40:26;96056.56;;;18.52;41.90
50057;BME280;36875;49.468;11.200;2023-03-14T04:42:52;96064.72;;;18.52;41.98
50057;BME280;36875;49.468;11.200;2023-03-14T04:45:19;96064.28;;;18.50;42.14
50057;BME280;36875;49.468;11.200;2023-03-14T04:47:44;96061.56;;;18.50;42.03
50057;BME280;36875;49.468;11.200;2023-03-14T04:50:10;96058.84;;;18.50;41.88
50057;BME280;36875;49.468;11.200;2023-03-14T04:52:36;96056.44;;;18.48;42.14
50057;BME280;36875;49.468;11.200;2023-03-14T04:55:01;96056.44;;;18.48;41.83
50057;BME280;36875;49.468;11.200;2023-03-14T04:57:27;96061.13;;;18.48;41.98
50057;BME280;36875;49.468;11.200;2023-03-14T04:59:52;96067.69;;;18.47;41.77
50057;BME280;36875;49.468;11.200;2023-03-14T05:02:19;96058.41;;;18.48;42.26
50057;BME280;36875;49.468;11.200;2023-03-14T05:04:45;96061.13;;;18.48;41.90
50057;BME280;36875;49.468;11.200;2023-03-14T05:07:10;96061.91;;;18.48;42.14
50057;BME280;36875;49.468;11.200;2023-03-14T05:09:36;96066.56;;;18.48;42.05
50057;BME280;36875;49.468;11.200;2023-03-14T05:12:01;96065.69;;;18.44;41.93
50057;BME280;36875;49.468;11.200;2023-03-14T05:14:27;96064.53;;;18.45;42.08
50057;BME280;36875;49.468;11.200;2023-03-14T05:16:52;96061.00;;;18.44;41.90
50057;BME280;36875;49.468;11.200;2023-03-14T05:19:19;96049.34;;;18.44;41.84
50057;BME280;36875;49.468;11.200;2023-03-14T05:21:45;96042.28;;;18.43;42.16
50057;BME280;36875;49.468;11.200;2023-03-14T05:24:10;96042.28;;;18.43;41.63
50057;BME280;36875;49.468;11.200;2023-03-14T05:26:36;96043.44;;;18.42;41.68
50057;BME280;36875;49.468;11.200;2023-03-14T05:29:01;96048.53;;;18.43;41.88
50057;BME280;36875;49.468;11.200;2023-03-14T05:31:27;96036.06;;;18.42;42.01
50057;BME280;36875;49.468;11.200;2023-03-14T05:33:52;96030.59;;;18.42;41.87
50057;BME280;36875;49.468;11.200;2023-03-14T05:36:19;96027.88;;;18.42;41.57
50057;BME280;36875;49.468;11.200;2023-03-14T05:38:44;96025.50;;;18.41;42.06
50057;BME280;36875;49.468;11.200;2023-03-14T05:41:10;96029.00;;;18.41;41.55
50057;BME280;36875;49.468;11.200;2023-03-14T05:43:35;96022.00;;;18.40;41.92
50057;BME280;36875;49.468;11.200;2023-03-14T05:46:01;96021.22;;;18.40;41.88
50057;BME280;36875;49.468;11.200;2023-03-14T05:48:26;96015.28;;;18.38;41.85
50057;BME280;36875;49.468;11.200;2023-03-14T05:50:54;96008.72;;;18.39;41.61
50057;BME280;36875;49.468;11.200;2023-03-14T05:53:22;96008.72;;;18.39;41.74
50057;BME280;36875;49.468;11.200;2023-03-14T05:55:51;96008.72;;;18.39;41.89
50057;BME280;36875;49.468;11.200;2023-03-14T05:58:16;96011.78;;;18.37;41.87
50057;BME280;36875;49.468;11.200;2023-03-14T06:00:41;96005.56;;;18.37;41.81
50057;BME280;36875;49.468;11.200;2023-03-14T06:03:07;96009.06;;;18.37;41.99
50057;BME280;36875;49.468;11.200;2023-03-14T06:05:32;96012.13;;;18.36;41.82
50057;BME280;36875;49.468;11.200;2023-03-14T06:07:58;96013.28;;;18.35;41.66
50057;BME280;36875;49.468;11.200;2023-03-14T06:10:25;96014.41;;;18.34;41.70
50057;BME280;36875;49.468;11.200;2023-03-14T06:12:50;96014.41;;;18.34;41.78
50057;BME280;36875;49.468;11.200;2023-03-14T06:15:16;96019.84;;;18.34;41.53
50057;BME280;36875;49.468;11.200;2023-03-14T06:17:41;96012.47;;;18.34;41.98
50057;BME280;36875;49.468;11.200;2023-03-14T06:20:08;96018.28;;;18.33;41.67
50057;BME280;36875;49.468;11.200;2023-03-14T06:22:34;96020.19;;;18.32;41.65
50057;BME280;36875;49.468;11.200;2023-03-14T06:24:59;96024.84;;;18.32;42.08
50057;BME280;36875;49.468;11.200;2023-03-14T06:27:26;96025.97;;;18.30;42.05
50057;BME280;36875;49.468;11.200;2023-03-14T06:29:51;96015.47;;;18.29;41.64
50057;BME280;36875;49.468;11.200;2023-03-14T06:32:17;96015.47;;;18.29;41.91
50057;BME280;36875;49.468;11.200;2023-03-14T06:34:44;96013.09;;;18.27;42.04
50057;BME280;36875;49.468;11.200;2023-03-14T06:37:10;96006.84;;;18.27;41.71
50057;BME280;36875;49.468;11.200;2023-03-14T06:39:35;96006.84;;;18.27;41.79
50057;BME280;36875;49.468;11.200;2023-03-14T06:42:01;96010.69;;;18.26;41.74
50057;BME280;36875;49.468;11.200;2023-03-14T06:44:27;96011.81;;;18.25;42.18
50057;BME280;36875;49.468;11.200;2023-03-14T06:46:53;96017.25;;;18.25;41.96
50057;BME280;36875;49.468;11.200;2023-03-14T06:49:18;96009.91;;;18.25;41.77
50057;BME280;36875;49.468;11.200;2023-03-14T06:51:44;96009.09;;;18.25;41.99
50057;BME280;36875;49.468;11.200;2023-03-14T06:54:09;96012.97;;;18.24;41.98
50057;BME280;36875;49.468;11.200;2023-03-14T06:56:35;96013.75;;;18.24;42.20
50057;BME280;36875;49.468;11.200;2023-03-14T06:59:00;96020.38;;;18.23;42.27
50057;BME280;36875;49.468;11.200;2023-03-14T07:01:28;96033.16;;;18.23;42.08
50057;BME280;36875;49.468;11.200;2023-03-14T07:03:55;96025.00;;;18.23;42.14
50057;BME280;36875;49.468;11.200;2023-03-14T07:06:20;96032.03;;;18.24;42.57
50057;BME280;36875;49.468;11.200;2023-03-14T07:08:46;96034.75;;;18.24;42.56
50057;BME280;36875;49.468;11.200;2023-03-14T07:11:11;96025.81;;;18.23;42.65
50057;BME280;36875;49.468;11.200;2023-03-14T07:13:37;96021.81;;;18.21;42.51
50057;BME280;36875;49.468;11.200;2023-03-14T07:16:03;96022.59;;;18.21;42.16
50057;BME280;36875;49.468;11.200;2023-03-14T07:18:30;96027.28;;;18.21;42.27
50057;BME280;36875;49.468;11.200;2023-03-14T07:20:56;96021.81;;;18.21;42.38
50057;BME280;36875;49.468;11.200;2023-03-14T07:23:21;96022.59;;;18.21;42.76
50057;BME280;36875;49.468;11.200;2023-03-14T07:25:47;96020.69;;;18.22;42.34
50057;BME280;36875;49.468;11.200;2023-03-14T07:28:12;96033.97;;;18.23;42.92
50057;BME280;36875;49.468;11.200;2023-03-14T07:30:38;96027.03;;;18.26;42.81
50057;BME280;36875;49.468;11.200;2023-03-14T07:33:03;96032.13;;;18.27;42.96
50057;BME280;36875;49.468;11.200;2023-03-14T07:35:30;96026.25;;;18.25;42.80
50057;BME280;36875;49.468;11.200;2023-03-14T07:37:56;96030.53;;;18.26;42.80
50057;BME280;36875;49.468;11.200;2023-03-14T07:40:21;96032.94;;;18.28;43.18
50057;BME280;36875;49.468;11.200;2023-03-14T07:42:47;96030.97;;;18.28;42.99
50057;BME280;36875;49.468;11.200;2023-03-14T07:45:13;96029.41;;;18.27;42.95
50057;BME280;36875;49.468;11.200;2023-03-14T07:47:39;96029.75;;;18.26;43.22
50057;BME280;36875;49.468;11.200;2023-03-14T07:50:05;96032.69;;;18.33;43.47
50057;BME280;36875;49.468;11.200;2023-03-14T07:52:32;96035.28;;;18.42;43.48
50057;BME280;36875;49.468;11.200;2023-03-14T07:54:58;96036.38;;;18.53;43.26
50057;BME280;36875;49.468;11.200;2023-03-14T07:57:23;96034.28;;;18.62;42.96
50057;BME280;36875;49.468;11.200;2023-03-14T07:59:49;96038.44;;;18.72;42.35
50057;BME280;36875;49.468;11.200;2023-03-14T08:02:15;96042.59;;;18.82;42.17
50057;BME280;36875;49.468;11.200;2023-03-14T08:04:40;96048.69;;;18.91;42.44
50057;BME280;36875;49.468;11.200;2023-03-14T08:07:06;96043.41;;;18.98;41.91
50057;BME280;36875;49.468;11.200;2023-03-14T08:09:33;96040.97;;;19.09;42.09
50057;BME280;36875;49.468;11.200;2023-03-14T08:11:59;96041.16;;;19.16;41.81
50057;BME280;36875;49.468;11.200;2023-03-14T08:14:24;96037.94;;;19.26;41.74
50057;BME280;36875;49.468;11.200;2023-03-14T08:16:50;96036.94;;;19.35;41.23
50057;BME280;36875;49.468;11.200;2023-03-14T08:19:16;96018.38;;;19.40;41.53
50057;BME280;36875;49.468;11.200;2023-03-14T08:21:42;96033.44;;;19.50;41.02
50057;BME280;36875;49.468;11.200;2023-03-14T08:24:08;96019.16;;;19.57;41.10
50057;BME280;36875;49.468;11.200;2023-03-14T08:26:35;96016.59;;;19.64;41.13
50057;BME280;36875;49.468;11.200;2023-03-14T08:29:00;96018.38;;;19.72;41.12
50057;BME280;36875;49.468;11.200;2023-03-14T08:31:26;96017.31;;;19.77;40.50
50057;BME280;36875;49.468;11.200;2023-03-14T08:33:52;95996.00;;;19.82;40.40
50057;BME280;36875;49.468;11.200;2023-03-14T08:36:18;96003.19;;;19.91;40.80
50057;BME280;36875;49.468;11.200;2023-03-14T08:38:44;96004.06;;;19.95;40.39
50057;BME280;36875;49.468;11.200;2023-03-14T08:41:10;96003.78;;;20.00;40.42
50057;BME280;36875;49.468;11.200;2023-03-14T08:43:37;95996.47;;;20.04;40.31
50057;BME280;36875;49.468;11.200;2023-03-14T08:46:03;95994.94;;;20.07;40.67
50057;BME280;36875;49.468;11.200;2023-03-14T08:48:29;95986.81;;;20.10;40.28
50057;BME280;36875;49.468;11.200;2023-03-14T08:50:55;95988.84;;;20.13;40.21
50057;BME280;36875;49.468;11.200;2023-03-14T08:53:21;95991.31;;;20.18;40.00
50057;BME280;36875;49.468;11.200;2023-03-14T08:55:52;95985.53;;;20.23;39.95
50057;BME280;36875;49.468;11.200;2023-03-14T08:58:18;95986.41;;;20.28;39.91
50057;BME280;36875;49.468;11.200;2023-03-14T09:00:45;95986.84;;;20.30;40.42
50057;BME280;36875;49.468;11.200;2023-03-14T09:03:10;95987.69;;;20.34;40.19
50057;BME280;36875;49.468;11.200;2023-03-14T09:05:36;95983.84;;;20.35;40.02
50057;BME280;36875;49.468;11.200;2023-03-14T09:08:01;95991.72;;;20.40;39.83
50057;BME280;36875;49.468;11.200;2023-03-14T09:10:27;95992.16;;;20.42;39.98
50057;BME280;36875;49.468;11.200;2023-03-14T09:12:52;95989.88;;;20.44;40.14
50057;BME280;36875;49.468;11.200;2023-03-14T09:15:18;95993.44;;;20.48;40.09
50057;BME280;36875;49.468;11.200;2023-03-14T09:17:45;95998.91;;;20.48;39.93
50057;BME280;36875;49.468;11.200;2023-03-14T09:20:11;95990.38;;;20.50;40.02
50057;BME280;36875;49.468;11.200;2023-03-14T09:22:36;95986.47;;;20.51;39.89
50057;BME280;36875;49.468;11.200;2023-03-14T09:25:02;95976.34;;;20.51;40.26
50057;BME280;36875;49.468;11.200;2023-03-14T09:27:27;95981.81;;;20.51;40.12
50057;BME280;36875;49.468;11.200;2023-03-14T09:29:53;95977.56;;;20.54;39.94
50057;BME280;36875;49.468;11.200;2023-03-14T09:32:18;95984.22;;;20.56;40.24
50057;BME280;36875;49.468;11.200;2023-03-14T09:34:45;95983.09;;;20.57;39.96
50057;BME280;36875;49.468;11.200;2023-03-14T09:37:11;95980.78;;;20.59;40.02
50057;BME280;36875;49.468;11.200;2023-03-14T09:39:36;95982.91;;;20.66;39.87
50057;BME280;36875;49.468;11.200;2023-03-14T09:42:04;95983.69;;;20.67;39.80
50057;BME280;36875;49.468;11.200;2023-03-14T09:44:32;95973.53;;;20.67;39.76
50057;BME280;36875;49.468;11.200;2023-03-14T09:47:00;95982.16;;;20.69;40.15
50057;BME280;36875;49.468;11.200;2023-03-14T09:49:29;95980.59;;;20.68;39.98
50057;BME280;36875;49.468;11.200;2023-03-14T09:51:59;95971.59;;;20.48;40.35
50057;BME280;36875;49.468;11.200;2023-03-14T09:54:31;95965.34;;;20.09;41.05
50057;BME280;36875;49.468;11.200;2023-03-14T09:56:57;95980.28;;;19.95;41.48
50057;BME280;36875;49.468;11.200;2023-03-14T09:59:23;95969.63;;;19.90;41.58
50057;BME280;36875;49.468;11.200;2023-03-14T10:01:48;95970.28;;;19.83;41.72
50057;BME280;36875;49.468;11.200;2023-03-14T10:04:15;95973.28;;;19.78;41.38
50057;BME280;36875;49.468;11.200;2023-03-14T10:06:42;95974.00;;;19.75;41.70
50057;BME280;36875;49.468;11.200;2023-03-14T10:09:13;95959.22;;;19.76;41.58
50057;BME280;36875;49.468;11.200;2023-03-14T10:11:42;95972.44;;;19.74;41.60
50057;BME280;36875;49.468;11.200;2023-03-14T10:14:09;95963.06;;;19.75;41.96
50057;BME280;36875;49.468;11.200;2023-03-14T10:16:36;95965.09;;;19.78;41.96
50057;BME280;36875;49.468;11.200;2023-03-14T10:19:04;95968.97;;;19.77;41.81
50057;BME280;36875;49.468;11.200;2023-03-14T10:21:31;95960.00;;;19.77;41.66
50057;BME280;36875;49.468;11.200;2023-03-14T10:24:10;95965.47;;;19.77;42.11
50057;BME280;36875;49.468;11.200;2023-03-14T10:26:36;95960.78;;;19.77;42.09
50057;BME280;36875;49.468;11.200;2023-03-14T10:29:03;95951.88;;;19.80;42.16
50057;BME280;36875;49.468;11.200;2023-03-14T10:31:47;95943.00;;;19.83;41.96
50057;BME280;36875;49.468;11.200;2023-03-14T10:34:17;95946.94;;;19.86;41.77
50057;BME280;36875;49.468;11.200;2023-03-14T10:36:46;95946.16;;;19.86;42.07
50057;BME280;36875;49.468;11.200;2023-03-14T10:39:30;95957.06;;;19.86;41.90
50057;BME280;36875;49.468;11.200;2023-03-14T10:42:04;95958.63;;;19.87;42.17
50057;BME280;36875;49.468;11.200;2023-03-14T10:44:31;95953.19;;;19.87;41.78
50057;BME280;36875;49.468;11.200;2023-03-14T10:47:00;95947.00;;;19.90;42.14
50057;BME280;36875;49.468;11.200;2023-03-14T10:49:28;95956.88;;;19.94;42.24
50057;BME280;36875;49.468;11.200;2023-03-14T10:51:54;95960.38;;;19.95;41.93
50057;BME280;36875;49.468;11.200;2023-03-14T10:54:21;95957.66;;;19.95;42.29
50057;BME280;36875;49.468;11.200;2023-03-14T10:59:39;95961.75;;;19.85;42.08
50057;BME280;36875;49.468;11.200;2023-03-14T11:02:20;95968.34;;;19.84;42.41
50057;BME280;36875;49.468;11.200;2023-03-14T11:04:59;95978.19;;;19.89;42.13
50057;BME280;36875;49.468;11.200;2023-03-14T11:07:32;95968.06;;;19.89;42.22
50057;BME280;36875;49.468;11.200;2023-03-14T11:10:03;95970.38;;;19.87;42.02
50057;BME280;36875;49.468;11.200;2023-03-14T11:12:41;95973.53;;;19.89;42.22
50057;BME280;36875;49.468;11.200;2023-03-14T11:15:15;95969.72;;;19.94;41.82
50057;BME280;36875;49.468;11.200;2023-03-14T11:17:51;95972.09;;;19.95;42.02
50057;BME280;36875;49.468;11.200;2023-03-14T11:20:38;95972.88;;;19.96;42.04
50057;BME280;36875;49.468;11.200;2023-03-14T11:23:12;95981.88;;;19.96;41.97
50057;BME280;36875;49.468;11.200;2023-03-14T11:25:43;95977.56;;;19.95;42.21
50057;BME280;36875;49.468;11.200;2023-03-14T11:28:18;95975.47;;;20.08;42.11
50057;BME280;36875;49.468;11.200;2023-03-14T11:30:51;95973.59;;;20.12;41.95
50057;BME280;36875;49.468;11.200;2023-03-14T11:33:18;95973.03;;;20.03;42.14
50057;BME280;36875;49.468;11.200;2023-03-14T11:35:49;95986.25;;;20.01;42.31
50057;BME280;36875;49.468;11.200;2023-03-14T11:38:27;96000.25;;;19.99;42.43
50057;BME280;36875;49.468;11.200;2023-03-14T11:40:57;95981.56;;;20.01;42.11
50057;BME280;36875;49.468;11.200;2023-03-14T11:43:28;95967.56;;;20.03;42.05
50057;BME280;36875;49.468;11.200;2023-03-14T11:45:58;95967.28;;;20.08;42.34
50057;BME280;36875;49.468;11.200;2023-03-14T11:48:35;95964.84;;;20.22;42.24
50057;BME280;36875;49.468;11.200;2023-03-14T11:51:08;95965.06;;;20.33;41.99
50057;BME280;36875;49.468;11.200;2023-03-14T11:53:43;95959.38;;;20.42;41.87
50057;BME280;36875;49.468;11.200;2023-03-14T11:56:13;95958.22;;;20.43;41.91
50057;BME280;36875;49.468;11.200;2023-03-14T11:58:48;95954.84;;;20.50;42.00
50057;BME280;36875;49.468;11.200;2023-03-14T12:01:17;95947.84;;;20.52;41.73
50057;BME280;36875;49.468;11.200;2023-03-14T12:03:52;95940.91;;;20.55;41.76
50057;BME280;36875;49.468;11.200;2023-03-14T12:06:24;95943.50;;;20.48;41.80
50057;BME280;36875;49.468;11.200;2023-03-14T12:08:55;95941.13;;;20.46;41.87
50057;BME280;36875;49.468;11.200;2023-03-14T12:11:33;95928.03;;;20.36;42.17
50057;BME280;36875;49.468;11.200;2023-03-14T12:14:03;95928.03;;;20.36;42.53
50057;BME280;36875;49.468;11.200;2023-03-14T12:16:40;95928.03;;;20.36;42.51
50057;BME280;36875;49.468;11.200;2023-03-14T12:19:35;95919.41;;;20.34;42.51
50057;BME280;36875;49.468;11.200;2023-03-14T12:22:17;95908.91;;;20.36;42.34
50057;BME280;36875;49.468;11.200;2023-03-14T12:24:48;95912.41;;;20.36;42.52
50057;BME280;36875;49.468;11.200;2023-03-14T12:27:47;95901.13;;;20.38;42.31
50057;BME280;36875;49.468;11.200;2023-03-14T12:30:25;95899.56;;;20.37;42.59
50057;BME280;36875;49.468;11.200;2023-03-14T12:33:29;95912.38;;;20.33;42.31
50057;BME280;36875;49.468;11.200;2023-03-14T12:36:23;95919.41;;;20.34;42.33
50057;BME280;36875;49.468;11.200;2023-03-14T12:39:13;95903.72;;;20.31;42.16
50057;BME280;36875;49.468;11.200;2023-03-14T12:41:50;95905.19;;;20.25;42.06
50057;BME280;36875;49.468;11.200;2023-03-14T12:49:54;95900.16;;;20.27;42.00
50057;BME280;36875;49.468;11.200;2023-03-14T12:52:37;95894.81;;;20.34;41.43
50057;BME280;36875;49.468;11.200;2023-03-14T12:55:10;95890.94;;;20.35;42.07
50057;BME280;36875;49.468;11.200;2023-03-14T12:57:42;95887.81;;;20.33;41.58
50057;BME280;36875;49.468;11.200;2023-03-14T13:00:18;95886.63;;;20.34;41.95
50057;BME280;36875;49.468;11.200;2023-03-14T13:02:47;95882.75;;;20.35;41.87